createdAt,value
2022-12-03T00:00:30.124Z,100650.91
2022-12-03T00:02:56.916Z,100650.75
2022-12-03T00:05:23.606Z,100644.59
2022-12-03T00:07:50.395Z,100654.03
2022-12-03T00:10:17.194Z,100650.88
2022-12-03T00:12:43.811Z,100652.81
2022-12-03T00:15:11.272Z,100652.50
2022-12-03T00:17:38.344Z,100656.97
2022-12-03T00:20:07.850Z,100665.16
2022-12-03T00:22:34.726Z,100662.69
2022-12-03T00:25:01.333Z,100665.84
2022-12-03T00:27:28.170Z,100660.59
2022-12-03T00:29:55.021Z,100667.06
2022-12-03T00:32:21.692Z,100668.72
2022-12-03T00:34:48.343Z,100667.75
2022-12-03T00:37:15.033Z,100664.28
2022-12-03T00:39:41.655Z,100664.06
2022-12-03T00:42:08.293Z,100675.34
2022-12-03T00:44:34.964Z,100669.84
2022-12-03T00:47:01.692Z,100666.53
2022-12-03T00:49:28.445Z,100692.44
2022-12-03T00:51:55.199Z,100689.09
2022-12-03T00:54:26.814Z,100682.41
2022-12-03T00:56:56.908Z,100685.22
2022-12-03T00:59:23.545Z,100684.97
2022-12-03T01:01:50.236Z,100679.97
2022-12-03T01:04:17.001Z,100688.03
2022-12-03T01:06:43.774Z,100677.63
2022-12-03T01:09:10.456Z,100674.09
2022-12-03T01:11:41.446Z,100679.44
2022-12-03T01:14:11.183Z,100692.94
2022-12-03T01:16:38.281Z,100690.16
2022-12-03T01:19:06.158Z,100686.56
2022-12-03T01:21:33.733Z,100692.72
2022-12-03T01:24:00.598Z,100690.25
2022-12-03T01:26:27.287Z,100690.63
2022-12-03T01:28:54.011Z,100686.09
2022-12-03T01:31:59.140Z,100693.50
2022-12-03T01:34:25.910Z,100696.78
2022-12-03T01:36:52.699Z,100697.03
2022-12-03T01:39:20.065Z,100691.91
2022-12-03T01:41:48.845Z,100701.44
2022-12-03T01:44:20.586Z,100698.78
2022-12-03T01:46:47.848Z,100702.41
2022-12-03T01:49:19.080Z,100678.91
2022-12-03T01:51:47.311Z,100697.31
2022-12-03T01:54:18.632Z,100695.81
2022-12-03T01:56:46.247Z,100700.63
2022-12-03T01:59:22.126Z,100702.28
2022-12-03T02:01:49.509Z,100699.00
2022-12-03T02:04:19.816Z,100698.19
2022-12-03T02:06:46.568Z,100705.41
2022-12-03T02:09:14.156Z,100696.72
2022-12-03T02:11:47.125Z,100713.72
2022-12-03T02:14:20.915Z,100705.41
2022-12-03T02:16:48.301Z,100709.28
2022-12-03T02:19:24.051Z,100707.31
2022-12-03T02:22:11.519Z,100714.19
2022-12-03T02:24:52.844Z,100714.09
2022-12-03T02:27:20.012Z,100714.19
2022-12-03T02:29:46.757Z,100726.03
2022-12-03T02:32:13.554Z,100723.16
2022-12-03T02:34:42.450Z,100731.13
2022-12-03T02:37:17.751Z,100730.53
2022-12-03T02:39:51.795Z,100729.41
2022-12-03T02:42:37.905Z,100733.22
2022-12-03T02:45:12.614Z,100737.06
2022-12-03T02:47:44.570Z,100716.47
2022-12-03T02:50:14.323Z,100726.41
2022-12-03T02:52:43.274Z,100734.63
2022-12-03T02:55:10.355Z,100728.81
2022-12-03T02:57:39.143Z,100724.66
2022-12-03T03:00:08.767Z,100737.31
2022-12-03T03:02:37.357Z,100738.84
2022-12-03T03:05:06.403Z,100740.25
2022-12-03T03:07:33.836Z,100741.09
2022-12-03T03:10:02.056Z,100748.41
2022-12-03T03:12:28.836Z,100741.78
2022-12-03T03:14:55.712Z,100736.91
2022-12-03T03:17:22.850Z,100742.41
2022-12-03T03:19:49.682Z,100732.44
2022-12-03T03:22:17.144Z,100745.72
2022-12-03T03:24:43.878Z,100739.91
2022-12-03T03:27:11.265Z,100741.31
2022-12-03T03:29:38.214Z,100748.19
2022-12-03T03:32:05.294Z,100735.28
2022-12-03T03:34:33.207Z,100749.22
2022-12-03T03:36:59.942Z,100737.97
2022-12-03T03:39:26.667Z,100743.09
2022-12-03T03:41:53.479Z,100745.56
2022-12-03T03:44:20.185Z,100741.84
2022-12-03T03:46:46.943Z,100746.72
2022-12-03T03:49:13.740Z,100747.53
2022-12-03T03:51:40.810Z,100749.34
2022-12-03T03:54:08.250Z,100736.94
2022-12-03T03:56:35.338Z,100743.63
2022-12-03T03:59:03.061Z,100755.25
2022-12-03T04:01:30.447Z,100745.50
2022-12-03T04:03:59.742Z,100752.78
2022-12-03T04:06:27.652Z,100764.84
2022-12-03T04:08:54.973Z,100765.38
2022-12-03T04:11:40.608Z,100760.25
2022-12-03T04:14:07.265Z,100759.03
2022-12-03T04:16:34.029Z,100761.22
2022-12-03T04:19:00.778Z,100758.19
2022-12-03T04:21:45.860Z,100759.63
2022-12-03T04:24:12.674Z,100758.22
2022-12-03T04:26:57.698Z,100761.75
2022-12-03T04:29:24.600Z,100765.22
2022-12-03T04:32:10.010Z,100761.00
2022-12-03T04:34:55.859Z,100767.38
2022-12-03T04:37:22.755Z,100760.50
2022-12-03T04:39:49.398Z,100775.38
2022-12-03T04:42:16.176Z,100775.84
2022-12-03T04:44:43.044Z,100766.59
2022-12-03T04:47:18.326Z,100763.56
2022-12-03T04:49:47.355Z,100767.53
2022-12-03T04:52:16.694Z,100775.03
2022-12-03T04:54:44.007Z,100772.94
2022-12-03T04:57:11.982Z,100778.38
2022-12-03T04:59:39.251Z,100774.19
2022-12-03T05:02:06.926Z,100775.91
2022-12-03T05:04:34.147Z,100778.53
2022-12-03T05:07:00.844Z,100781.88
2022-12-03T05:09:27.580Z,100777.94
2022-12-03T05:11:54.275Z,100785.91
2022-12-03T05:14:21.022Z,100788.41
2022-12-03T05:16:47.732Z,100783.97
2022-12-03T05:19:14.499Z,100795.44
2022-12-03T05:21:41.183Z,100807.38
2022-12-03T05:24:08.009Z,100811.25
2022-12-03T05:26:34.709Z,100810.09
2022-12-03T05:29:01.337Z,100805.56
2022-12-03T05:31:28.148Z,100802.22
2022-12-03T05:33:55.268Z,100794.22
2022-12-03T05:36:25.422Z,100812.66
2022-12-03T05:38:52.121Z,100809.88
2022-12-03T05:41:37.456Z,100804.59
2022-12-03T05:44:04.207Z,100806.00
2022-12-03T05:46:31.548Z,100806.72
2022-12-03T05:48:58.257Z,100803.78
2022-12-03T05:51:24.931Z,100810.19
2022-12-03T05:53:51.554Z,100807.69
2022-12-03T05:56:18.211Z,100814.22
2022-12-03T05:58:44.924Z,100818.06
2022-12-03T06:01:11.654Z,100799.66
2022-12-03T06:03:38.438Z,100813.22
2022-12-03T06:06:05.446Z,100810.72
2022-12-03T06:08:32.113Z,100816.31
2022-12-03T06:10:58.765Z,100819.88
2022-12-03T06:13:25.392Z,100809.91
2022-12-03T06:15:52.049Z,100827.41
2022-12-03T06:18:18.780Z,100824.06
2022-12-03T06:20:45.480Z,100815.63
2022-12-03T06:23:12.185Z,100828.38
2022-12-03T06:25:38.804Z,100821.97
2022-12-03T06:28:06.291Z,100826.56
2022-12-03T06:30:34.339Z,100833.88
2022-12-03T06:33:01.017Z,100838.22
2022-12-03T06:35:27.640Z,100828.19
2022-12-03T06:37:54.369Z,100817.88
2022-12-03T06:40:21.112Z,100842.84
2022-12-03T06:42:47.800Z,100825.06
2022-12-03T06:45:14.452Z,100839.72
2022-12-03T06:47:41.867Z,100851.72
2022-12-03T06:50:08.985Z,100847.59
2022-12-03T06:52:36.112Z,100850.84
2022-12-03T06:55:02.897Z,100845.53
2022-12-03T06:57:29.687Z,100829.31
2022-12-03T06:59:56.581Z,100839.50
2022-12-03T07:02:23.539Z,100838.91
2022-12-03T07:04:50.330Z,100835.09
2022-12-03T07:07:17.053Z,100847.00
2022-12-03T07:09:43.851Z,100842.03
2022-12-03T07:12:10.568Z,100841.03
2022-12-03T07:14:37.247Z,100841.88
2022-12-03T07:17:03.937Z,100849.19
2022-12-03T07:19:32.784Z,100846.94
2022-12-03T07:21:59.986Z,100845.88
2022-12-03T07:24:26.649Z,100857.19
2022-12-03T07:26:53.367Z,100850.88
2022-12-03T07:29:20.062Z,100853.66
2022-12-03T07:31:46.853Z,100865.44
2022-12-03T07:34:13.689Z,100865.53
2022-12-03T07:36:40.360Z,100873.72
2022-12-03T07:39:07.080Z,100867.06
2022-12-03T07:41:33.819Z,100860.78
2022-12-03T07:44:00.434Z,100864.66
2022-12-03T07:46:27.148Z,100873.31
2022-12-03T07:48:53.779Z,100875.41
2022-12-03T07:51:20.482Z,100873.88
2022-12-03T07:53:47.133Z,100872.78
2022-12-03T07:56:13.857Z,100867.03
2022-12-03T07:58:40.561Z,100876.00
2022-12-03T08:01:07.350Z,100868.44
2022-12-03T08:03:34.019Z,100869.38
2022-12-03T08:06:00.936Z,100863.88
2022-12-03T08:08:27.580Z,100864.56
2022-12-03T08:10:54.369Z,100862.53
2022-12-03T08:13:21.063Z,100863.59
2022-12-03T08:15:47.770Z,100851.44
2022-12-03T08:18:18.520Z,100872.06
2022-12-03T08:20:46.709Z,100867.09
2022-12-03T08:23:16.759Z,100864.66
2022-12-03T08:25:45.102Z,100861.47
2022-12-03T08:28:14.638Z,100867.16
2022-12-03T08:30:43.116Z,100867.31
2022-12-03T08:33:18.857Z,100868.28
2022-12-03T08:35:50.880Z,100865.25
2022-12-03T08:38:21.572Z,100877.66
2022-12-03T08:40:51.220Z,100875.16
2022-12-03T08:43:27.243Z,100879.94
2022-12-03T08:45:58.243Z,100882.25
2022-12-03T08:48:27.588Z,100875.66
2022-12-03T08:51:00.167Z,100879.31
2022-12-03T08:53:37.722Z,100877.41
2022-12-03T08:56:26.158Z,100879.16
2022-12-03T08:58:56.163Z,100874.69
2022-12-03T09:01:44.666Z,100877.53
2022-12-03T09:04:21.943Z,100867.72
2022-12-03T09:06:48.887Z,100869.25
2022-12-03T09:09:15.872Z,100875.22
2022-12-03T09:11:43.464Z,100872.22
2022-12-03T09:14:16.736Z,100870.31
2022-12-03T09:16:45.292Z,100871.59
2022-12-03T09:19:12.125Z,100871.31
2022-12-03T09:21:38.804Z,100860.88
2022-12-03T09:24:05.728Z,100851.81
2022-12-03T09:26:32.451Z,100862.03
2022-12-03T09:28:59.108Z,100817.63
2022-12-03T09:31:25.926Z,100857.41
2022-12-03T09:33:52.643Z,100859.44
2022-12-03T09:36:19.337Z,100855.81
2022-12-03T09:38:47.932Z,100854.66
2022-12-03T09:41:15.089Z,100850.84
2022-12-03T09:46:30.181Z,100848.47
2022-12-03T09:48:57.312Z,100850.06
2022-12-03T09:51:27.635Z,100847.72
2022-12-03T09:56:48.788Z,100833.06
2022-12-03T09:59:16.762Z,100836.50
2022-12-03T10:01:44.304Z,100836.28
2022-12-03T10:04:13.747Z,100838.16
2022-12-03T10:06:45.600Z,100833.44
2022-12-03T10:09:17.427Z,100835.19
2022-12-03T10:11:44.433Z,100827.41
2022-12-03T10:14:14.599Z,100833.19
2022-12-03T10:16:42.220Z,100830.19
2022-12-03T10:19:23.843Z,100830.63
2022-12-03T10:21:50.738Z,100827.22
2022-12-03T10:24:17.358Z,100823.88
2022-12-03T10:26:46.106Z,100826.75
2022-12-03T10:29:21.959Z,100828.66
2022-12-03T10:32:05.775Z,100833.34
2022-12-03T10:34:38.259Z,100828.38
2022-12-03T10:37:21.025Z,100833.34
2022-12-03T10:40:13.993Z,100834.41
2022-12-03T10:42:41.642Z,100829.03
2022-12-03T10:45:22.712Z,100828.50
2022-12-03T10:48:11.201Z,100836.00
2022-12-03T10:50:45.917Z,100841.16
2022-12-03T10:53:12.746Z,100836.34
2022-12-03T10:55:42.018Z,100833.66
2022-12-03T10:58:30.383Z,100834.38
2022-12-03T11:00:58.688Z,100832.22
2022-12-03T11:03:28.241Z,100830.88
2022-12-03T11:05:57.176Z,100835.38
2022-12-03T11:08:30.775Z,100829.75
2022-12-03T11:11:02.500Z,100829.56
2022-12-03T11:13:35.212Z,100831.09
2022-12-03T11:16:04.381Z,100822.16
2022-12-03T11:18:37.313Z,100832.72
2022-12-03T11:21:09.195Z,100829.22
2022-12-03T11:23:44.984Z,100821.69
2022-12-03T11:26:19.578Z,100823.00
2022-12-03T11:28:46.610Z,100819.84
2022-12-03T11:31:36.202Z,100815.66
2022-12-03T11:34:18.119Z,100815.50
2022-12-03T11:37:09.617Z,100814.81
2022-12-03T11:39:48.082Z,100815.88
2022-12-03T11:42:26.682Z,100816.50
2022-12-03T11:45:14.088Z,100815.53
2022-12-03T11:47:44.112Z,100813.22
2022-12-03T11:50:28.968Z,100811.59
2022-12-03T11:53:10.830Z,100822.19
2022-12-03T11:55:40.455Z,100811.28
2022-12-03T11:58:21.641Z,100814.88
2022-12-03T12:00:53.383Z,100813.03
2022-12-03T12:03:26.877Z,100812.22
2022-12-03T12:06:20.895Z,100815.34
2022-12-03T12:08:58.710Z,100815.88
2022-12-03T12:11:35.311Z,100816.88
2022-12-03T12:14:03.531Z,100813.69
2022-12-03T12:16:55.487Z,100830.41
2022-12-03T12:19:34.543Z,100825.44
2022-12-03T12:22:25.015Z,100822.16
2022-12-03T12:24:53.037Z,100815.59
2022-12-03T12:27:32.624Z,100819.88
2022-12-03T12:30:12.810Z,100810.81
2022-12-03T12:32:47.291Z,100818.31
2022-12-03T12:35:28.891Z,100818.09
2022-12-03T12:38:07.434Z,100814.31
2022-12-03T12:40:39.831Z,100810.25
2022-12-03T12:43:26.275Z,100816.72
2022-12-03T12:45:55.299Z,100818.66
2022-12-03T12:48:27.941Z,100820.84
2022-12-03T12:51:13.144Z,100823.84
2022-12-03T12:53:42.909Z,100823.44
2022-12-03T12:56:31.668Z,100822.75
2022-12-03T12:59:11.339Z,100829.00
2022-12-03T13:01:39.240Z,100830.88
2022-12-03T13:04:12.979Z,100828.16
2022-12-03T13:06:40.217Z,100823.06
2022-12-03T13:09:19.770Z,100829.25
2022-12-03T13:11:52.024Z,100824.06
2022-12-03T13:14:21.168Z,100829.06
2022-12-03T13:16:49.827Z,100839.66
2022-12-03T13:19:16.591Z,100834.56
2022-12-03T13:21:44.629Z,100833.59
2022-12-03T13:24:37.213Z,100830.09
2022-12-03T13:27:22.803Z,100829.22
2022-12-03T13:29:53.406Z,100833.44
2022-12-03T13:32:21.334Z,100816.97
2022-12-03T13:34:50.596Z,100824.91
2022-12-03T13:37:23.339Z,100836.50
2022-12-03T13:39:52.475Z,100833.00
2022-12-03T13:42:38.792Z,100835.72
2022-12-03T13:45:15.040Z,100840.34
2022-12-03T13:47:41.940Z,100840.34
2022-12-03T13:50:20.853Z,100834.47
2022-12-03T13:52:47.793Z,100841.63
2022-12-03T13:55:24.850Z,100837.69
2022-12-03T13:57:51.748Z,100842.38
2022-12-03T14:00:18.940Z,100843.06
2022-12-03T14:02:45.725Z,100850.75
2022-12-03T14:05:12.512Z,100852.69
2022-12-03T14:07:39.714Z,100846.91
2022-12-03T14:10:09.347Z,100860.50
2022-12-03T14:12:36.322Z,100857.81
2022-12-03T14:15:05.227Z,100858.78
2022-12-03T14:17:32.843Z,100858.78
2022-12-03T14:20:01.546Z,100866.66
2022-12-03T14:22:28.494Z,100846.63
2022-12-03T14:24:55.612Z,100863.94
2022-12-03T14:27:22.841Z,100850.91
2022-12-03T14:29:49.482Z,100863.28
2022-12-03T14:32:16.811Z,100857.03
2022-12-03T14:34:43.753Z,100873.84
2022-12-03T14:37:10.435Z,100865.78
2022-12-03T14:39:37.287Z,100866.69
2022-12-03T14:42:13.406Z,100865.53
2022-12-03T14:44:48.307Z,100871.31
2022-12-03T14:47:17.054Z,100875.81
2022-12-03T14:49:44.102Z,100872.53
2022-12-03T14:52:12.404Z,100866.03
2022-12-03T14:54:42.427Z,100876.97
2022-12-03T14:57:11.576Z,100875.06
2022-12-03T14:59:39.689Z,100879.75
2022-12-03T15:02:06.848Z,100873.06
2022-12-03T15:04:33.655Z,100877.34
2022-12-03T15:07:00.480Z,100873.56
2022-12-03T15:09:27.194Z,100872.72
2022-12-03T15:11:54.294Z,100873.69
2022-12-03T15:14:20.953Z,100878.34
2022-12-03T15:16:47.821Z,100882.47
2022-12-03T15:19:14.890Z,100875.44
2022-12-03T15:21:41.584Z,100876.06
2022-12-03T15:24:08.682Z,100871.84
2022-12-03T15:26:35.328Z,100873.03
2022-12-03T15:29:01.959Z,100866.84
2022-12-03T15:31:28.746Z,100875.13
2022-12-03T15:33:55.430Z,100877.78
2022-12-03T15:36:22.080Z,100868.78
2022-12-03T15:38:48.785Z,100880.41
2022-12-03T15:41:23.303Z,100875.13
2022-12-03T15:43:51.439Z,100874.91
2022-12-03T15:46:18.886Z,100881.47
2022-12-03T15:48:45.834Z,100879.63
2022-12-03T15:51:12.885Z,100883.59
2022-12-03T15:53:40.409Z,100881.47
2022-12-03T15:56:07.722Z,100875.97
2022-12-03T15:58:34.836Z,100887.97
2022-12-03T16:01:01.495Z,100876.03
2022-12-03T16:03:28.371Z,100888.97
2022-12-03T16:05:55.222Z,100893.47
2022-12-03T16:08:21.982Z,100897.41
2022-12-03T16:10:48.747Z,100894.75
2022-12-03T16:13:15.463Z,100902.81
2022-12-03T16:15:42.186Z,100890.28
2022-12-03T16:18:09.367Z,100895.16
2022-12-03T16:20:36.082Z,100896.56
2022-12-03T16:23:02.804Z,100906.16
2022-12-03T16:25:29.463Z,100903.22
2022-12-03T16:27:56.941Z,100909.94
2022-12-03T16:30:24.836Z,100897.84
2022-12-03T16:32:51.765Z,100906.94
2022-12-03T16:35:18.714Z,100896.94
2022-12-03T16:37:45.460Z,100898.47
2022-12-03T16:40:12.429Z,100899.91
2022-12-03T16:42:39.215Z,100902.59
2022-12-03T16:45:09.429Z,100920.78
2022-12-03T16:47:36.542Z,100910.50
2022-12-03T16:50:16.451Z,100917.06
2022-12-03T16:52:47.671Z,100914.25
2022-12-03T16:55:14.524Z,100930.25
2022-12-03T16:57:41.183Z,100935.41
2022-12-03T17:00:08.425Z,100931.22
2022-12-03T17:02:35.178Z,100931.25
2022-12-03T17:05:01.951Z,100920.47
2022-12-03T17:07:28.834Z,100932.19
2022-12-03T17:09:55.698Z,100936.53
2022-12-03T17:12:22.579Z,100938.03
2022-12-03T17:14:49.302Z,100941.78
2022-12-03T17:17:16.105Z,100936.88
2022-12-03T17:19:42.777Z,100937.91
2022-12-03T17:22:09.511Z,100951.94
2022-12-03T17:24:36.321Z,100944.16
2022-12-03T17:27:06.052Z,100944.59
2022-12-03T17:29:32.713Z,100946.56
2022-12-03T17:31:59.595Z,100951.31
2022-12-03T17:34:26.329Z,100951.31
2022-12-03T17:36:52.965Z,100951.56
2022-12-03T17:39:19.651Z,100953.09
2022-12-03T17:41:46.312Z,100952.69
2022-12-03T17:44:17.761Z,100949.06
2022-12-03T17:46:46.378Z,100939.75
2022-12-03T17:49:13.124Z,100956.13
2022-12-03T17:51:39.938Z,100952.00
2022-12-03T17:54:06.695Z,100954.63
2022-12-03T17:56:33.725Z,100953.22
2022-12-03T17:59:00.434Z,100958.22
2022-12-03T18:01:27.202Z,100949.44
2022-12-03T18:03:53.974Z,100950.50
2022-12-03T18:06:20.718Z,100960.81
2022-12-03T18:09:05.282Z,100947.50
2022-12-03T18:11:32.189Z,100951.13
2022-12-03T18:13:59.069Z,100956.09
2022-12-03T18:16:25.852Z,100958.34
2022-12-03T18:18:56.675Z,100950.44
2022-12-03T18:21:27.129Z,100959.63
2022-12-03T18:23:54.704Z,100952.97
2022-12-03T18:26:21.798Z,100954.56
2022-12-03T18:28:48.759Z,100946.81
2022-12-03T18:31:18.302Z,100959.84
2022-12-03T18:33:45.316Z,100946.56
2022-12-03T18:36:18.826Z,100960.19
2022-12-03T18:38:46.617Z,100951.13
2022-12-03T18:41:13.342Z,100963.03
2022-12-03T18:43:41.721Z,100963.69
2022-12-03T18:46:31.042Z,100966.84
2022-12-03T18:49:01.369Z,100968.31
2022-12-03T18:51:29.100Z,100969.28
2022-12-03T18:53:55.758Z,100967.56
2022-12-03T18:56:22.554Z,100960.59
2022-12-03T18:58:49.276Z,100968.81
2022-12-03T19:01:21.632Z,100967.00
2022-12-03T19:03:49.655Z,100967.75
2022-12-03T19:06:19.242Z,100971.91
2022-12-03T19:08:48.457Z,100968.72
2022-12-03T19:11:15.498Z,100978.75
2022-12-03T19:13:42.801Z,100969.31
2022-12-03T19:16:12.157Z,100968.63
2022-12-03T19:18:39.364Z,100970.53
2022-12-03T19:21:11.678Z,100971.50
2022-12-03T19:23:38.938Z,100970.69
2022-12-03T19:26:08.198Z,100973.22
2022-12-03T19:28:34.922Z,100965.41
2022-12-03T19:31:05.407Z,100968.63
2022-12-03T19:33:32.638Z,100964.72
2022-12-03T19:36:00.296Z,100973.72
2022-12-03T19:38:28.487Z,100979.31
2022-12-03T19:41:06.822Z,100983.44
2022-12-03T19:43:38.174Z,100983.97
2022-12-03T19:46:12.391Z,100981.94
2022-12-03T19:48:40.595Z,100981.69
2022-12-03T19:51:32.937Z,100983.50
2022-12-03T19:53:55.580Z,100986.41
2022-12-03T19:56:22.288Z,100972.25
2022-12-03T19:58:49.098Z,100974.63
2022-12-03T20:01:18.376Z,100983.25
2022-12-03T20:03:47.429Z,100995.38
2022-12-03T20:06:15.968Z,100990.19
2022-12-03T20:11:37.722Z,100990.53
2022-12-03T20:14:07.887Z,100993.41
2022-12-03T20:16:35.729Z,100998.31
2022-12-03T20:19:06.399Z,100999.72
2022-12-03T20:21:35.613Z,100997.47
2022-12-03T20:24:02.921Z,100998.00
2022-12-03T20:26:29.876Z,101001.34
2022-12-03T20:28:57.526Z,101001.19
2022-12-03T20:31:27.178Z,100995.38
2022-12-03T20:33:57.208Z,100996.47
2022-12-03T20:36:25.242Z,100996.53
2022-12-03T20:39:02.548Z,100992.88
2022-12-03T20:41:29.505Z,100990.56
2022-12-03T20:43:56.804Z,100994.75
2022-12-03T20:46:29.628Z,100987.13
2022-12-03T20:48:57.112Z,100987.38
2022-12-03T20:51:26.901Z,100987.00
2022-12-03T20:53:54.251Z,100986.84
2022-12-03T20:56:24.893Z,100986.44
2022-12-03T20:58:53.306Z,100985.03
2022-12-03T21:01:26.617Z,100981.97
2022-12-03T21:03:55.525Z,100981.41
2022-12-03T21:06:24.047Z,100981.25
2022-12-03T21:08:53.448Z,100989.06
2022-12-03T21:11:26.806Z,100980.31
2022-12-03T21:13:54.717Z,100978.66
2022-12-03T21:16:45.693Z,100998.53
2022-12-03T21:19:11.521Z,100992.72
2022-12-03T21:21:38.423Z,101001.19
2022-12-03T21:24:05.378Z,100995.91
2022-12-03T21:26:32.798Z,100998.81
2022-12-03T21:28:59.465Z,101005.19
2022-12-03T21:31:27.255Z,100997.81
2022-12-03T21:33:55.141Z,100994.19
2022-12-03T21:36:22.812Z,100998.22
2022-12-03T21:38:49.749Z,101002.41
2022-12-03T21:41:16.625Z,100992.00
2022-12-03T21:43:44.423Z,100997.81
2022-12-03T21:47:12.050Z,101009.91
2022-12-03T21:49:04.293Z,100988.91
2022-12-03T21:51:31.107Z,101002.28
2022-12-03T21:53:57.837Z,101009.50
2022-12-03T21:56:24.563Z,101007.97
2022-12-03T21:58:51.296Z,101010.19
2022-12-03T22:01:21.291Z,101007.66
2022-12-03T22:03:48.980Z,101008.78
2022-12-03T22:06:16.676Z,101005.47
2022-12-03T22:08:43.771Z,101004.75
2022-12-03T22:11:22.502Z,101004.22
2022-12-03T22:13:49.649Z,100998.09
2022-12-03T22:16:21.650Z,101004.06
2022-12-03T22:18:49.301Z,101000.34
2022-12-03T22:21:19.351Z,100998.38
2022-12-03T22:23:46.091Z,100993.91
2022-12-03T22:26:15.354Z,100991.25
2022-12-03T22:28:47.123Z,100989.78
2022-12-03T22:31:14.859Z,100982.28
2022-12-03T22:33:42.505Z,100986.28
2022-12-03T22:36:19.654Z,100982.69
2022-12-03T22:38:47.153Z,100988.38
2022-12-03T22:41:15.002Z,100983.91
2022-12-03T22:43:41.660Z,100980.19
2022-12-03T22:46:12.867Z,100980.84
2022-12-03T22:48:41.242Z,100981.00
2022-12-03T22:51:14.640Z,100982.09
2022-12-03T22:53:41.324Z,100985.19
2022-12-03T22:56:08.073Z,100982.16
2022-12-03T22:58:34.967Z,100980.47
2022-12-03T23:01:03.050Z,100983.81
2022-12-03T23:03:30.715Z,100979.75
2022-12-03T23:05:57.528Z,100982.56
2022-12-03T23:08:24.180Z,100975.19
2022-12-03T23:10:52.898Z,100970.19
2022-12-03T23:13:20.518Z,100968.22
2022-12-03T23:15:49.838Z,100967.56
2022-12-03T23:18:17.917Z,100973.22
2022-12-03T23:20:47.114Z,100969.06
2022-12-03T23:23:14.691Z,100973.78
2022-12-03T23:25:41.888Z,100968.22
2022-12-03T23:28:09.191Z,100971.72
2022-12-03T23:30:39.470Z,100977.25
2022-12-03T23:33:06.678Z,100980.47
2022-12-03T23:35:34.016Z,100970.19
2022-12-03T23:38:00.861Z,100966.16
2022-12-03T23:40:27.652Z,100978.34
2022-12-03T23:42:54.391Z,100970.03
2022-12-03T23:45:21.106Z,100978.53
2022-12-03T23:47:47.786Z,100981.00
2022-12-03T23:50:14.603Z,100984.47
2022-12-03T23:52:41.416Z,100989.91
2022-12-03T23:55:08.687Z,100985.59
2022-12-03T23:57:35.503Z,100982.53
